Time;durP1;ratioP1;P1;durP2;ratioP2;P2;SDS_P1;SDS_P2;PMS_P1;PMS_P2;Temp;Humidity;BMP_temperature;BMP_pressure;BME280_temperature;BME280_humidity;BME280_pressure;Samples;Min_cycle;Max_cycle;Signal;HPM_P1;HPM_P2
2024/01/30 00:00:05;;;;;;;28.38;18.17;;;;;;;2.72;82.50;100305.78;5014976;28;20070;-76
2024/01/30 00:02:34;;;;;;;28.85;18.05;;;;;;;2.70;82.58;100320.38;5012684;28;20567;-75
2024/01/30 00:04:59;;;;;;;32.37;18.13;;;;;;;2.72;81.92;100321.19;5013797;28;21056;-68
2024/01/30 00:07:26;;;;;;;28.50;17.35;;;;;;;2.33;83.11;100269.44;5014157;28;20112;-70
2024/01/30 00:09:52;;;;;;;28.52;17.20;;;;;;;2.54;83.08;100314.94;5013887;28;21150;-69
2024/01/30 00:12:19;;;;;;;27.77;16.55;;;;;;;2.61;83.89;100315.56;4997089;28;20468;-71
2024/01/30 00:14:45;;;;;;;30.13;17.88;;;;;;;2.66;83.47;100309.38;5013302;28;20034;-76
2024/01/30 00:17:15;;;;;;;28.02;17.13;;;;;;;2.40;83.35;100271.75;5013027;28;20052;-72
2024/01/30 00:19:41;;;;;;;28.27;17.25;;;;;;;2.34;82.97;100268.53;5013562;28;20026;-66
2024/01/30 00:22:07;;;;;;;27.27;17.73;;;;;;;2.62;83.73;100323.22;5014947;28;20021;-75
2024/01/30 00:24:32;;;;;;;27.45;17.55;;;;;;;2.59;83.27;100318.19;4997874;28;20099;-72
2024/01/30 00:26:58;;;;;;;27.77;16.58;;;;;;;2.58;82.83;100323.38;5013531;28;20056;-70
2024/01/30 00:29:25;;;;;;;27.70;16.75;;;;;;;2.56;83.20;100322.59;4996240;28;20034;-75
2024/01/30 00:31:53;;;;;;;24.65;15.65;;;;;;;2.60;83.61;100316.47;5013702;28;20018;-70
2024/01/30 00:34:21;;;;;;;27.77;16.60;;;;;;;2.37;83.61;100324.94;5014607;28;20121;-77
2024/01/30 00:36:46;;;;;;;33.25;17.58;;;;;;;2.30;83.71;100316.59;4998188;28;20063;-69
2024/01/30 00:39:15;;;;;;;28.85;15.95;;;;;;;2.11;84.43;100280.41;5014490;28;20695;-70
2024/01/30 00:41:43;;;;;;;29.40;16.73;;;;;;;2.47;84.38;100313.47;5016363;28;20024;-74
2024/01/30 00:44:11;;;;;;;30.95;16.63;;;;;;;2.52;83.87;100310.72;5017624;28;20025;-67
2024/01/30 00:46:39;;;;;;;28.08;16.25;;;;;;;2.47;84.17;100313.47;5019052;28;20063;-71
2024/01/30 00:49:06;;;;;;;26.30;16.83;;;;;;;2.37;83.88;100310.34;5014461;28;20028;-73
2024/01/30 00:51:32;;;;;;;31.23;16.98;;;;;;;2.37;83.12;100304.38;5018458;28;20063;-70
2024/01/30 00:53:57;;;;;;;25.73;16.63;;;;;;;2.40;82.83;100304.28;5017635;28;20116;-69
2024/01/30 00:56:24;;;;;;;26.15;16.33;;;;;;;2.53;83.28;100317.56;5018155;28;20060;-71
2024/01/30 00:58:51;;;;;;;24.83;15.13;;;;;;;2.50;82.77;100315.91;5001364;28;20603;-65
2024/01/30 01:01:17;;;;;;;25.88;16.02;;;;;;;2.33;83.16;100307.94;5017590;28;20040;-75
2024/01/30 01:03:45;;;;;;;26.85;15.63;;;;;;;2.33;83.77;100313.09;5018145;28;20045;-68
2024/01/30 01:06:12;;;;;;;28.15;16.52;;;;;;;2.34;84.14;100318.19;5018791;28;20511;-69
2024/01/30 01:08:40;;;;;;;26.17;16.45;;;;;;;2.25;83.92;100311.59;5016346;28;20034;-74
2024/01/30 01:11:08;;;;;;;24.92;15.35;;;;;;;2.36;83.31;100318.13;5018245;28;20033;-70
2024/01/30 01:13:33;;;;;;;25.33;15.15;;;;;;;2.32;84.24;100319.97;5015967;28;20029;-70
2024/01/30 01:15:59;;;;;;;25.63;15.50;;;;;;;1.94;84.18;100263.03;5016991;28;20029;-69
2024/01/30 01:18:24;;;;;;;26.02;14.80;;;;;;;2.29;84.13;100313.19;5016129;28;20055;-69
2024/01/30 01:20:52;;;;;;;25.23;15.38;;;;;;;2.34;83.62;100323.31;5016455;28;20040;-70
2024/01/30 01:23:17;;;;;;;25.30;15.60;;;;;;;2.19;83.94;100319.53;5016004;28;20100;-74
2024/01/30 01:25:43;;;;;;;23.58;14.50;;;;;;;2.07;84.63;100313.03;5016467;28;20279;-67
2024/01/30 01:28:10;;;;;;;24.63;15.65;;;;;;;1.86;83.60;100264.97;5016764;28;20037;-70
2024/01/30 01:30:36;;;;;;;23.73;14.38;;;;;;;2.15;84.08;100325.63;5016071;28;20033;-68
2024/01/30 01:33:02;;;;;;;26.75;14.88;;;;;;;2.18;83.94;100322.13;5018646;28;20025;-77
2024/01/30 01:35:29;;;;;;;25.73;14.85;;;;;;;2.15;84.78;100323.06;4998127;28;20048;-67
2024/01/30 01:37:59;;;;;;;22.85;14.48;;;;;;;2.20;84.60;100320.34;5017066;28;20558;-71
2024/01/30 01:40:28;;;;;;;21.17;14.27;;;;;;;1.79;84.96;100253.22;5017455;28;20038;-72
2024/01/30 01:42:56;;;;;;;25.35;16.00;;;;;;;2.16;84.59;100321.34;5000056;28;20029;-76
2024/01/30 01:45:26;;;;;;;27.55;15.23;;;;;;;2.10;84.65;100325.78;4997542;28;20060;-72
2024/01/30 01:47:52;;;;;;;22.75;14.43;;;;;;;2.00;84.19;100332.09;4989629;28;20036;-70
2024/01/30 01:50:18;;;;;;;23.75;14.65;;;;;;;2.06;84.41;100325.91;5011372;28;20029;-73
2024/01/30 01:52:47;;;;;;;24.10;14.95;;;;;;;2.10;84.08;100322.38;5011217;28;20566;-69
2024/01/30 01:55:15;;;;;;;26.00;15.02;;;;;;;1.90;84.19;100285.38;5030308;28;20057;-79
2024/01/30 01:57:41;;;;;;;22.88;15.27;;;;;;;2.05;84.41;100322.53;5015412;28;20538;-74
2024/01/30 02:00:10;;;;;;;25.10;14.70;;;;;;;1.60;84.97;100260.69;4995595;28;20024;-74
2024/01/30 02:02:38;;;;;;;26.33;14.98;;;;;;;2.08;84.47;100319.88;5043917;28;20042;-74
2024/01/30 02:05:09;;;;;;;23.17;14.70;;;;;;;2.00;84.47;100321.00;5000452;28;20040;-70
2024/01/30 02:07:34;;;;;;;26.15;14.50;;;;;;;2.01;84.82;100310.69;5000043;28;20037;-64
2024/01/30 02:09:59;;;;;;;23.67;14.75;;;;;;;2.01;84.76;100320.09;5015313;28;20033;-76
2024/01/30 02:12:27;;;;;;;25.05;14.65;;;;;;;1.63;84.66;100250.34;4997395;28;20025;-71
2024/01/30 02:14:54;;;;;;;25.25;13.73;;;;;;;2.07;84.96;100317.34;5018140;28;20040;-71
2024/01/30 02:17:23;;;;;;;22.27;13.20;;;;;;;2.05;84.34;100314.81;4998752;28;20442;-70
2024/01/30 02:19:51;;;;;;;23.98;13.88;;;;;;;1.75;85.55;100290.13;4997392;28;20477;-66
2024/01/30 02:22:18;;;;;;;24.85;14.15;;;;;;;1.65;85.46;100251.94;5028327;28;20036;-69
2024/01/30 02:24:43;;;;;;;25.45;14.18;;;;;;;1.69;84.59;100266.34;5019163;28;20083;-73
2024/01/30 02:27:11;;;;;;;23.83;14.63;;;;;;;1.79;85.03;100291.69;5013860;28;20048;-68
2024/01/30 02:29:36;;;;;;;24.90;13.50;;;;;;;1.94;85.45;100319.47;5014343;28;20036;-70
2024/01/30 02:32:01;;;;;;;26.77;14.07;;;;;;;1.79;85.42;100300.25;5015635;28;20038;-72
2024/01/30 02:34:27;;;;;;;21.30;13.60;;;;;;;1.86;85.49;100316.28;5016082;28;20029;-67
2024/01/30 02:36:52;;;;;;;24.85;14.40;;;;;;;1.83;86.46;100312.09;5012917;28;20030;-72
2024/01/30 02:39:17;;;;;;;31.13;16.60;;;;;;;1.86;86.19;100323.97;5012597;28;20050;-72
2024/01/30 02:41:43;;;;;;;29.80;15.63;;;;;;;1.84;85.42;100315.50;5012973;28;20029;-70
2024/01/30 02:44:08;;;;;;;34.88;17.08;;;;;;;1.76;85.90;100315.72;4992630;28;20453;-71
2024/01/30 02:46:34;;;;;;;32.17;17.77;;;;;;;1.81;85.23;100315.59;5001669;28;20029;-77
2024/01/30 02:48:59;;;;;;;28.90;16.05;;;;;;;1.78;85.83;100305.44;5016103;28;20067;-67
2024/01/30 02:51:27;;;;;;;29.02;15.48;;;;;;;1.77;85.24;100314.00;4997386;28;20498;-72
2024/01/30 02:53:55;;;;;;;25.42;15.07;;;;;;;1.81;86.47;100310.47;5009144;28;20103;-69
2024/01/30 02:56:21;;;;;;;30.08;15.35;;;;;;;1.68;86.33;100315.13;5006003;28;20025;-66
2024/01/30 02:58:48;;;;;;;27.90;16.50;;;;;;;1.69;87.25;100317.63;5019526;28;20026;-70
2024/01/30 03:01:14;;;;;;;27.33;15.18;;;;;;;1.49;88.68;100317.41;4994626;28;20033;-67
2024/01/30 03:03:43;;;;;;;23.70;14.05;;;;;;;1.30;87.92;100276.09;5005456;28;20115;-66
2024/01/30 03:06:08;;;;;;;28.63;14.30;;;;;;;1.06;88.22;100232.38;5010998;28;20520;-75
2024/01/30 03:08:35;;;;;;;23.30;13.95;;;;;;;1.67;89.28;100308.31;5010961;28;20132;-69
2024/01/30 03:11:00;;;;;;;26.85;14.15;;;;;;;1.47;89.09;100279.00;5010970;28;20032;-72
2024/01/30 03:13:28;;;;;;;25.67;14.02;;;;;;;1.65;89.00;100312.66;4995216;28;20025;-68
2024/01/30 03:15:55;;;;;;;22.38;13.30;;;;;;;1.33;88.45;100263.19;5007340;28;20492;-74
2024/01/30 03:18:21;;;;;;;21.33;12.95;;;;;;;1.34;88.45;100252.88;4997357;28;20036;-72
2024/01/30 03:20:46;;;;;;;23.25;13.45;;;;;;;1.35;87.91;100258.84;5010823;28;20033;-71
2024/01/30 03:23:14;;;;;;;21.90;13.10;;;;;;;1.72;87.64;100312.44;4998534;28;20531;-70
2024/01/30 03:25:39;;;;;;;25.10;13.32;;;;;;;1.72;86.68;100314.16;5012236;28;20493;-71
2024/01/30 03:28:05;;;;;;;22.70;13.68;;;;;;;1.79;86.85;100319.91;5012918;28;20037;-68
2024/01/30 03:30:33;;;;;;;24.40;14.18;;;;;;;1.73;87.95;100318.38;5014964;28;20083;-74
2024/01/30 03:32:58;;;;;;;22.02;12.57;;;;;;;1.40;87.36;100261.28;5012549;28;20125;-68
2024/01/30 03:35:26;;;;;;;24.40;13.55;;;;;;;1.65;87.26;100310.09;5011964;28;20033;-73
2024/01/30 03:37:52;;;;;;;22.77;13.20;;;;;;;1.63;87.46;100307.56;4991192;28;20064;-69
2024/01/30 03:40:17;;;;;;;24.50;14.15;;;;;;;1.56;88.19;100311.22;5009103;28;20780;-72
2024/01/30 03:42:43;;;;;;;25.52;13.82;;;;;;;1.56;87.22;100310.38;5009781;28;20927;-69
2024/01/30 03:45:08;;;;;;;21.15;13.23;;;;;;;1.53;88.47;100306.16;4997961;28;20544;-72
2024/01/30 03:47:34;;;;;;;19.90;12.60;;;;;;;1.53;88.88;100308.72;5008680;28;20388;-74
2024/01/30 03:50:02;;;;;;;23.85;14.00;;;;;;;1.55;88.39;100312.09;5011922;28;20718;-71
2024/01/30 03:52:27;;;;;;;24.45;13.63;;;;;;;1.57;88.76;100301.78;5005537;28;20021;-67
2024/01/30 03:54:53;;;;;;;21.15;13.27;;;;;;;1.23;89.40;100248.97;5005740;28;20029;-74
2024/01/30 03:57:23;;;;;;;20.77;12.98;;;;;;;1.48;88.72;100306.31;4995487;28;20025;-77
2024/01/30 03:59:48;;;;;;;20.77;12.38;;;;;;;1.61;89.13;100306.78;5010603;28;20091;-68
2024/01/30 04:02:14;;;;;;;23.08;14.15;;;;;;;1.63;88.94;100301.63;5019742;28;20029;-74
2024/01/30 04:04:39;;;;;;;22.65;13.07;;;;;;;1.49;88.80;100297.72;5009073;28;20042;-72
2024/01/30 04:07:07;;;;;;;24.70;13.18;;;;;;;1.27;88.87;100264.19;5012857;28;20056;-73
2024/01/30 04:09:35;;;;;;;21.45;12.90;;;;;;;1.43;90.01;100294.53;5011149;28;20037;-73
2024/01/30 04:12:03;;;;;;;21.58;12.63;;;;;;;1.38;90.03;100297.22;5037437;28;20563;-66
2024/01/30 04:14:29;;;;;;;23.35;13.32;;;;;;;1.35;90.71;100287.03;5010132;28;20705;-70
2024/01/30 04:16:57;;;;;;;21.65;13.00;;;;;;;1.39;91.35;100298.91;5015865;28;20023;-72
2024/01/30 04:19:22;;;;;;;20.65;12.38;;;;;;;1.40;90.15;100292.03;5015287;28;20756;-73
2024/01/30 04:21:47;;;;;;;23.25;12.85;;;;;;;1.41;90.63;100289.44;5014302;28;20028;-72
2024/01/30 04:24:13;;;;;;;23.13;13.57;;;;;;;1.07;90.27;100228.91;5012541;28;20029;-72
2024/01/30 04:26:38;;;;;;;22.92;13.50;;;;;;;1.39;90.65;100277.53;5015724;28;20021;-75
2024/01/30 04:29:11;;;;;;;21.17;12.30;;;;;;;1.22;89.86;100253.25;5014312;28;20102;-70
2024/01/30 04:31:37;;;;;;;20.45;12.77;;;;;;;1.15;90.68;100234.66;4998524;28;20029;-68
2024/01/30 04:34:02;;;;;;;23.00;12.93;;;;;;;1.47;90.85;100285.84;5002736;28;20037;-73
2024/01/30 04:36:28;;;;;;;22.95;12.73;;;;;;;1.20;90.95;100249.88;5017054;28;20029;-71
2024/01/30 04:38:53;;;;;;;24.13;13.20;;;;;;;1.46;90.75;100284.16;5014850;28;20045;-67
2024/01/30 04:41:19;;;;;;;22.83;12.88;;;;;;;1.49;91.70;100291.75;5012967;28;20021;-70
2024/01/30 04:43:47;;;;;;;21.25;12.95;;;;;;;1.53;91.84;100285.66;5014954;28;20037;-67
2024/01/30 04:46:12;;;;;;;22.13;13.13;;;;;;;1.18;91.04;100231.16;5009586;28;20037;-68
2024/01/30 04:48:38;;;;;;;21.52;13.15;;;;;;;1.52;91.00;100289.94;5012886;28;20030;-68
2024/01/30 04:51:04;;;;;;;21.92;13.00;;;;;;;1.52;92.30;100294.25;5012855;28;20170;-72
2024/01/30 04:53:30;;;;;;;21.10;12.85;;;;;;;1.50;91.93;100285.78;5013747;28;20030;-72
2024/01/30 04:55:56;;;;;;;19.50;12.25;;;;;;;1.51;92.24;100288.25;4997317;28;20045;-70
2024/01/30 04:58:21;;;;;;;21.90;13.10;;;;;;;1.49;92.00;100284.91;5010223;28;20582;-70
2024/01/30 05:00:51;;;;;;;22.23;13.10;;;;;;;1.15;92.26;100238.97;5016891;28;20630;-68
2024/01/30 05:03:22;;;;;;;22.02;11.88;;;;;;;1.47;92.51;100301.22;4993219;28;20442;-67
2024/01/30 05:05:47;;;;;;;22.70;13.38;;;;;;;1.19;92.94;100245.66;5018935;28;20112;-73
2024/01/30 05:08:15;;;;;;;23.67;13.68;;;;;;;1.29;93.94;100289.78;5012345;28;20527;-70
2024/01/30 05:10:41;;;;;;;24.95;13.82;;;;;;;1.42;93.89;100293.66;5010849;28;20053;-73
2024/01/30 05:13:06;;;;;;;22.63;13.63;;;;;;;1.48;93.47;100290.94;5003695;28;20770;-71
2024/01/30 05:15:32;;;;;;;24.90;15.32;;;;;;;1.57;93.25;100291.53;5038502;28;20051;-68
2024/01/30 05:18:02;;;;;;;25.00;14.43;;;;;;;1.52;93.31;100286.56;5014534;28;20033;-72
2024/01/30 05:20:30;;;;;;;22.13;13.98;;;;;;;1.48;94.09;100293.50;4997058;28;20037;-65
2024/01/30 05:22:55;;;;;;;24.85;14.18;;;;;;;1.56;93.82;100290.69;4990215;28;20475;-73
2024/01/30 05:25:21;;;;;;;27.20;14.80;;;;;;;1.58;93.59;100298.34;5010427;28;20083;-70
2024/01/30 05:27:49;;;;;;;26.83;15.20;;;;;;;1.57;94.00;100294.09;5009599;28;20033;-71
2024/01/30 05:30:16;;;;;;;23.05;14.40;;;;;;;1.56;93.33;100293.25;5011230;28;20192;-65
2024/01/30 05:32:45;;;;;;;24.23;14.77;;;;;;;1.49;94.18;100282.34;5007616;28;20040;-67
2024/01/30 05:35:11;;;;;;;24.23;15.55;;;;;;;1.54;93.86;100295.03;5013580;28;20491;-71
2024/01/30 05:37:36;;;;;;;29.73;16.30;;;;;;;1.54;94.69;100292.47;5010623;28;20053;-73
2024/01/30 05:40:06;;;;;;;25.80;16.35;;;;;;;1.54;93.89;100295.03;5016744;28;20507;-72
2024/01/30 05:42:33;;;;;;;24.40;14.82;;;;;;;1.20;94.02;100226.81;5012021;28;20045;-70
2024/01/30 05:44:58;;;;;;;24.17;15.52;;;;;;;1.52;94.12;100299.38;5012871;28;20064;-75
2024/01/30 05:47:24;;;;;;;26.35;15.73;;;;;;;1.57;94.42;100297.50;5010128;28;20037;-72
2024/01/30 05:49:49;;;;;;;26.00;15.35;;;;;;;1.47;93.83;100290.97;5021770;28;21401;-69
2024/01/30 05:52:19;;;;;;;24.83;15.23;;;;;;;1.63;93.87;100302.44;5008967;28;20025;-65
2024/01/30 05:54:45;;;;;;;21.50;14.95;;;;;;;1.62;93.62;100287.09;5007472;28;20065;-68
2024/01/30 05:57:10;;;;;;;21.75;14.27;;;;;;;1.58;93.53;100298.34;5019240;28;20105;-73
2024/01/30 05:59:38;;;;;;;25.63;13.45;;;;;;;1.53;94.30;100291.63;5008034;28;20029;-69
2024/01/30 06:02:03;;;;;;;23.45;13.82;;;;;;;1.19;93.98;100247.38;5039899;28;20048;-70
2024/01/30 06:04:29;;;;;;;23.48;14.68;;;;;;;1.53;93.58;100291.63;5009418;28;20919;-71
2024/01/30 06:06:56;;;;;;;19.40;13.35;;;;;;;1.48;93.89;100302.91;4992823;28;20044;-66
2024/01/30 06:09:22;;;;;;;20.40;13.20;;;;;;;1.57;93.59;100294.94;4994104;28;20977;-72
2024/01/30 06:11:49;;;;;;;20.67;13.82;;;;;;;1.24;93.39;100248.06;5005913;28;20045;-75
2024/01/30 06:14:15;;;;;;;25.80;16.27;;;;;;;1.41;93.55;100289.44;5011890;28;20029;-75
2024/01/30 06:16:40;;;;;;;25.92;18.25;;;;;;;1.34;94.70;100301.59;4990616;28;20665;-69
2024/01/30 06:19:06;;;;;;;27.30;19.35;;;;;;;1.34;94.92;100299.03;5009594;28;20025;-70
2024/01/30 06:21:32;;;;;;;23.75;17.35;;;;;;;1.18;94.54;100246.53;5011144;28;20652;-75
2024/01/30 06:23:57;;;;;;;24.33;16.30;;;;;;;1.52;94.02;100296.81;5009456;28;20025;-73
2024/01/30 06:26:27;;;;;;;27.00;16.00;;;;;;;1.35;93.81;100271.66;5011194;28;20129;-69
2024/01/30 06:28:53;;;;;;;24.90;15.32;;;;;;;1.48;94.27;100298.63;4995130;28;20048;-69
2024/01/30 06:31:18;;;;;;;22.30;13.82;;;;;;;1.29;94.88;100293.19;5006956;28;20502;-72
2024/01/30 06:33:46;;;;;;;24.60;14.52;;;;;;;1.42;94.60;100291.09;5007122;28;20781;-75
2024/01/30 06:36:12;;;;;;;24.55;14.85;;;;;;;1.48;94.20;100290.94;4991264;28;20037;-70
2024/01/30 06:38:37;;;;;;;20.77;13.70;;;;;;;1.47;94.04;100304.63;4986375;28;20056;-68
2024/01/30 06:41:07;;;;;;;26.65;13.75;;;;;;;1.47;93.78;100306.34;5009225;28;20029;-73
2024/01/30 06:43:33;;;;;;;23.33;13.85;;;;;;;1.46;94.24;100314.91;4993987;28;20028;-74
2024/01/30 06:45:59;;;;;;;21.33;13.88;;;;;;;1.15;94.43;100262.84;4991103;28;20030;-76
2024/01/30 06:48:24;;;;;;;21.40;13.18;;;;;;;1.40;94.94;100303.13;4995325;28;20033;-72
2024/01/30 06:50:50;;;;;;;24.27;15.13;;;;;;;1.43;95.11;100302.22;5008542;28;20034;-72
2024/01/30 06:53:20;;;;;;;22.45;13.90;;;;;;;1.52;95.40;100309.63;5011994;28;20387;-74
2024/01/30 06:55:46;;;;;;;20.88;13.18;;;;;;;1.48;96.23;100310.63;4990483;28;20567;-73
2024/01/30 06:58:19;;;;;;;22.83;13.45;;;;;;;1.51;95.51;100316.47;4988428;28;20033;-73
2024/01/30 07:00:45;;;;;;;20.10;12.18;;;;;;;1.44;96.64;100311.56;5009540;28;20021;-68
2024/01/30 07:03:13;;;;;;;21.45;13.18;;;;;;;1.09;97.23;100264.75;5007821;28;20028;-68
2024/01/30 07:05:39;;;;;;;24.10;13.75;;;;;;;1.40;97.00;100307.41;5012048;28;20539;-73
2024/01/30 07:08:07;;;;;;;21.63;13.38;;;;;;;1.46;96.48;100305.53;5007219;28;20025;-64
2024/01/30 07:10:33;;;;;;;21.58;13.75;;;;;;;1.56;96.17;100321.47;5012546;28;20025;-76
2024/01/30 07:12:58;;;;;;;23.50;13.50;;;;;;;1.48;95.55;100313.19;5012641;28;20034;-66
2024/01/30 07:15:23;;;;;;;25.00;14.13;;;;;;;1.43;96.35;100320.16;4993554;28;20168;-76
2024/01/30 07:17:49;;;;;;;22.77;13.73;;;;;;;1.40;97.09;100315.09;5009423;28;20025;-66
2024/01/30 07:20:14;;;;;;;24.17;14.25;;;;;;;1.24;97.10;100268.56;4993591;28;20036;-72
2024/01/30 07:22:40;;;;;;;23.77;13.57;;;;;;;1.61;97.18;100326.47;4993271;28;20349;-69
2024/01/30 07:25:06;;;;;;;21.08;13.50;;;;;;;1.63;97.36;100317.84;4993027;28;20037;-70
2024/01/30 07:27:32;;;;;;;22.48;14.68;;;;;;;1.62;97.27;100333.25;5010255;28;20280;-69
2024/01/30 07:29:57;;;;;;;22.65;13.65;;;;;;;1.65;96.88;100325.50;5009311;28;20109;-69
2024/01/30 07:32:23;;;;;;;22.90;14.73;;;;;;;1.65;97.25;100316.06;5042854;28;20474;-73
2024/01/30 07:34:49;;;;;;;30.75;16.80;;;;;;;1.77;97.25;100329.38;5013096;28;20017;-74
2024/01/30 07:37:15;;;;;;;28.35;18.27;;;;;;;1.71;97.50;100321.00;4988566;28;20373;-72
2024/01/30 07:39:41;;;;;;;35.67;21.40;;;;;;;1.81;97.36;100329.25;4992350;28;20129;-68
2024/01/30 07:42:07;;;;;;;41.42;28.15;;;;;;;1.52;97.09;100273.75;5007764;28;20701;-71
2024/01/30 07:44:32;;;;;;;44.85;30.48;;;;;;;1.75;97.76;100326.88;4998482;28;20029;-67
2024/01/30 07:46:59;;;;;;;38.13;26.27;;;;;;;1.53;97.69;100301.91;5005934;28;20033;-67
2024/01/30 07:49:25;;;;;;;34.13;22.52;;;;;;;1.79;97.76;100335.31;5014252;28;20095;-74
2024/01/30 07:51:52;;;;;;;28.40;19.05;;;;;;;1.92;97.98;100337.47;5015703;28;20029;-71
2024/01/30 07:54:18;;;;;;;29.90;18.75;;;;;;;1.94;97.96;100316.91;5008252;28;20543;-71
2024/01/30 07:56:45;;;;;;;27.73;18.50;;;;;;;2.01;97.76;100335.47;5018566;28;20030;-69
2024/01/30 07:59:11;;;;;;;28.60;17.95;;;;;;;2.05;97.30;100340.47;5013541;28;20041;-67
2024/01/30 08:01:37;;;;;;;25.20;17.25;;;;;;;2.10;97.27;100333.47;5019534;28;20029;-67
2024/01/30 08:04:03;;;;;;;26.52;16.25;;;;;;;1.96;97.30;100324.53;4999388;28;20168;-71
2024/01/30 08:06:31;;;;;;;24.25;14.90;;;;;;;2.11;97.10;100342.84;4997560;28;20037;-68
2024/01/30 08:08:57;;;;;;;27.02;14.35;;;;;;;2.20;97.22;100343.44;5008191;28;20025;-69
2024/01/30 08:11:25;;;;;;;25.42;14.80;;;;;;;2.19;96.79;100339.19;5015719;28;20036;-66
2024/01/30 08:13:52;;;;;;;23.85;14.15;;;;;;;2.32;96.67;100350.75;5029009;28;20026;-68
2024/01/30 08:16:17;;;;;;;23.45;14.60;;;;;;;2.29;97.26;100345.72;5012580;28;20033;-77
2024/01/30 08:18:43;;;;;;;24.38;14.65;;;;;;;2.33;97.88;100347.28;5014249;28;20874;-69
2024/01/30 08:21:09;;;;;;;22.65;14.80;;;;;;;2.38;98.30;100348.00;5009756;28;20484;-68
2024/01/30 08:23:36;;;;;;;24.10;14.63;;;;;;;2.05;98.55;100286.59;5018386;28;20033;-65
2024/01/30 08:26:02;;;;;;;22.35;14.93;;;;;;;2.41;99.34;100339.34;5015964;28;20060;-70
2024/01/30 08:28:28;;;;;;;23.42;15.07;;;;;;;2.46;99.21;100342.59;5010739;28;20124;-72
2024/01/30 08:30:53;;;;;;;23.23;15.27;;;;;;;2.50;100.00;100345.03;5007210;28;20088;-74
2024/01/30 08:33:18;;;;;;;24.63;15.10;;;;;;;2.48;100.00;100338.25;4997800;28;20030;-75
2024/01/30 08:35:46;;;;;;;25.95;15.40;;;;;;;2.52;100.00;100347.53;5008973;28;20107;-69
2024/01/30 08:38:12;;;;;;;30.95;15.40;;;;;;;2.54;100.00;100337.19;4999335;28;20084;-65
2024/01/30 08:40:40;;;;;;;21.98;14.25;;;;;;;2.60;100.00;100339.56;5015503;28;20933;-76
2024/01/30 08:43:05;;;;;;;20.50;14.02;;;;;;;2.67;100.00;100341.88;5013899;28;20034;-68
2024/01/30 08:45:31;;;;;;;21.83;14.75;;;;;;;2.71;100.00;100342.63;5011357;28;20076;-71
2024/01/30 08:47:56;;;;;;;21.90;14.65;;;;;;;2.69;100.00;100332.38;5009988;28;20750;-69
2024/01/30 08:50:22;;;;;;;23.10;14.63;;;;;;;2.80;100.00;100346.59;5011383;28;20029;-68
2024/01/30 08:52:47;;;;;;;26.90;14.48;;;;;;;2.83;100.00;100338.78;5009450;28;20510;-75
2024/01/30 08:55:18;;;;;;;20.73;13.77;;;;;;;2.87;100.00;100345.50;5001426;28;20025;-73
2024/01/30 08:57:43;;;;;;;21.15;13.40;;;;;;;2.85;100.00;100339.59;5018817;28;20065;-73
2024/01/30 09:00:11;;;;;;;22.75;14.88;;;;;;;2.89;100.00;100344.53;5023220;28;20030;-72
2024/01/30 09:02:42;;;;;;;20.33;13.55;;;;;;;2.87;100.00;100338.63;4982745;28;20049;-71
2024/01/30 09:05:07;;;;;;;21.77;13.80;;;;;;;2.92;100.00;100343.63;4987784;28;20033;-73
2024/01/30 09:07:35;;;;;;;21.48;14.40;;;;;;;2.58;100.00;100284.84;5021079;28;20157;-71
2024/01/30 09:10:02;;;;;;;21.58;13.57;;;;;;;2.94;100.00;100353.81;5002124;28;20090;-74
2024/01/30 09:12:28;;;;;;;21.67;13.98;;;;;;;2.85;100.00;100349.84;5010218;28;20091;-70
2024/01/30 09:14:56;;;;;;;22.40;13.93;;;;;;;2.48;100.00;100292.03;4997341;28;20021;-73
2024/01/30 09:17:21;;;;;;;20.05;13.52;;;;;;;2.87;100.00;100351.47;5000635;28;20065;-76
2024/01/30 09:19:49;;;;;;;21.20;13.35;;;;;;;2.97;100.00;100346.00;5013920;28;20112;-72
2024/01/30 09:22:19;;;;;;;20.27;13.30;;;;;;;2.94;100.00;100338.41;4987467;28;20045;-75
2024/01/30 09:24:46;;;;;;;20.42;13.48;;;;;;;3.01;100.00;100347.56;4987889;28;20032;-68
2024/01/30 09:27:12;;;;;;;20.45;12.85;;;;;;;3.03;100.00;100341.50;4996055;28;20532;-69
2024/01/30 09:29:37;;;;;;;20.42;14.18;;;;;;;3.06;100.00;100348.25;5001035;28;20026;-77
2024/01/30 09:32:04;;;;;;;24.17;13.60;;;;;;;3.06;100.00;100349.09;4990040;28;20041;-71
2024/01/30 09:34:32;;;;;;;23.58;12.02;;;;;;;3.10;100.00;100346.41;4991009;28;20022;-70
2024/01/30 09:36:59;;;;;;;18.15;11.98;;;;;;;3.12;100.00;100355.75;4998347;28;20041;-76
2024/01/30 09:39:24;;;;;;;18.45;11.48;;;;;;;3.07;100.00;100345.63;5032681;28;20122;-71
2024/01/30 09:42:00;;;;;;;17.95;11.00;;;;;;;3.07;100.00;100347.38;5000502;28;20025;-70
2024/01/30 09:44:28;;;;;;;23.13;12.68;;;;;;;3.15;100.00;100358.19;4983536;28;20044;-68
2024/01/30 09:47:03;;;;;;;20.98;11.82;;;;;;;3.17;100.00;100353.00;5024373;28;20026;-70
2024/01/30 09:49:32;;;;;;;18.52;11.85;;;;;;;3.30;100.00;100354.22;5001681;28;20120;-72
2024/01/30 09:51:58;;;;;;;17.83;11.93;;;;;;;3.27;100.00;100344.09;4982839;28;20052;-71
2024/01/30 09:54:28;;;;;;;15.15;10.32;;;;;;;3.37;100.00;100353.13;4985625;28;20029;-73
2024/01/30 09:56:56;;;;;;;20.15;11.30;;;;;;;3.27;100.00;100342.34;4991006;28;20041;-71
2024/01/30 09:59:24;;;;;;;16.42;11.68;;;;;;;3.38;100.00;100351.41;4998674;28;20049;-73
2024/01/30 10:01:50;;;;;;;16.80;11.65;;;;;;;3.38;100.00;100341.13;4983120;28;20091;-72
2024/01/30 10:04:18;;;;;;;17.15;10.75;;;;;;;3.51;100.00;100346.66;4998979;28;20477;-68
2024/01/30 10:06:43;;;;;;;18.83;10.43;;;;;;;3.50;100.00;100353.50;5016310;28;20021;-72
2024/01/30 10:09:11;;;;;;;16.30;10.57;;;;;;;3.64;100.00;100355.56;4989357;28;20140;-71
2024/01/30 10:11:37;;;;;;;14.20;9.30;;;;;;;3.73;98.60;100362.94;5013378;28;20032;-73
2024/01/30 10:14:05;;;;;;;13.98;9.80;;;;;;;3.56;98.01;100308.72;5030420;28;20363;-72
2024/01/30 10:16:34;;;;;;;13.93;9.32;;;;;;;3.94;96.58;100358.72;5000860;28;20021;-66
2024/01/30 10:18:59;;;;;;;15.43;9.05;;;;;;;3.82;94.86;100302.56;4986260;28;20472;-68
2024/01/30 10:21:27;;;;;;;13.35;8.57;;;;;;;4.26;91.42;100356.59;4989808;28;20041;-75
2024/01/30 10:23:55;;;;;;;14.95;8.95;;;;;;;4.34;91.10;100357.09;4995348;28;20237;-75
2024/01/30 10:26:21;;;;;;;16.13;9.98;;;;;;;4.35;89.60;100357.97;4997620;28;20628;-71
2024/01/30 10:28:48;;;;;;;15.02;8.23;;;;;;;4.16;84.41;100303.78;5003154;28;20022;-69
2024/01/30 10:31:18;;;;;;;15.35;8.25;;;;;;;4.53;82.73;100349.47;5030991;28;20119;-72
2024/01/30 10:33:44;;;;;;;;;;;;;;;4.71;83.07;100336.72;4980472;28;20029;-73
2024/01/30 10:36:13;;;;;;;12.48;8.15;;;;;;;4.77;80.60;100328.72;5027736;28;19963;-71
2024/01/30 10:38:39;;;;;;;12.20;7.97;;;;;;;4.86;79.88;100330.91;5027014;28;20049;-71
2024/01/30 10:41:05;;;;;;;14.93;8.25;;;;;;;4.91;78.17;100326.41;4980475;28;20972;-73
2024/01/30 10:43:35;;;;;;;12.80;7.20;;;;;;;4.76;75.79;100284.09;5023341;28;21568;-70
2024/01/30 10:46:14;;;;;;;12.88;7.32;;;;;;;5.10;74.65;100318.69;5028345;28;20123;-74
2024/01/30 10:48:45;;;;;;;11.50;6.57;;;;;;;5.17;73.52;100306.38;4998563;28;20025;-68
2024/01/30 10:51:13;;;;;;;10.90;6.80;;;;;;;5.31;71.59;100316.91;5029820;28;20857;-69
2024/01/30 10:53:38;;;;;;;11.68;7.00;;;;;;;5.45;74.17;100312.84;5011515;28;20040;-71
2024/01/30 10:56:04;;;;;;;12.05;7.45;;;;;;;5.51;74.33;100307.41;4986669;28;20045;-73
2024/01/30 10:58:32;;;;;;;13.00;7.97;;;;;;;5.53;78.79;100296.13;4996656;28;20075;-68
2024/01/30 11:00:58;;;;;;;15.77;7.72;;;;;;;5.37;74.33;100274.50;5029487;28;20448;-72
2024/01/30 11:03:27;;;;;;;14.05;7.35;;;;;;;5.61;72.87;100289.75;4980476;28;20033;-69
2024/01/30 11:05:52;;;;;;;11.45;6.80;;;;;;;5.74;70.78;100290.84;5023243;28;20029;-68
2024/01/30 11:08:34;;;;;;;13.95;7.00;;;;;;;5.84;70.73;100299.84;5029752;28;20060;-72
2024/01/30 11:10:59;;;;;;;10.90;6.35;;;;;;;5.99;70.11;100292.25;5029234;28;20508;-72
2024/01/30 11:13:32;;;;;;;12.30;6.40;;;;;;;6.06;70.36;100294.50;5001225;28;20096;-72